sensor_id;sensor_type;location;lat;lon;timestamp;pressure;altitude;pressure_sealevel;temperature;humidity
50364;BME280;36272;59.400;17.982;2023-01-09T00:01:42;99818.38;;;5.57;100.00
50364;BME280;36272;59.400;17.982;2023-01-09T00:06:44;99829.19;;;5.55;100.00
50364;BME280;36272;59.400;17.982;2023-01-09T00:11:54;99822.84;;;5.56;100.00
50364;BME280;36272;59.400;17.982;2023-01-09T00:16:55;99817.34;;;5.58;100.00
50364;BME280;36272;59.400;17.982;2023-01-09T00:21:57;99813.69;;;5.59;100.00
50364;BME280;36272;59.400;17.982;2023-01-09T00:26:58;99805.31;;;5.55;100.00
50364;BME280;36272;59.400;17.982;2023-01-09T00:32:00;99807.97;;;5.55;100.00
50364;BME280;36272;59.400;17.982;2023-01-09T00:37:03;99797.53;;;5.60;100.00
50364;BME280;36272;59.400;17.982;2023-01-09T00:42:15;99797.97;;;5.57;100.00
50364;BME280;36272;59.400;17.982;2023-01-09T00:47:24;99784.09;;;5.55;100.00
50364;BME280;36272;59.400;17.982;2023-01-09T00:52:29;99780.41;;;5.56;100.00
50364;BME280;36272;59.400;17.982;2023-01-09T00:57:31;99789.56;;;5.60;100.00
50364;BME280;36272;59.400;17.982;2023-01-09T01:02:33;99798.13;;;5.62;100.00
50364;BME280;36272;59.400;17.982;2023-01-09T01:07:35;99804.06;;;5.64;100.00
50364;BME280;36272;59.400;17.982;2023-01-09T01:12:39;99803.63;;;5.68;100.00
50364;BME280;36272;59.400;17.982;2023-01-09T01:17:41;99803.22;;;5.71;100.00
50364;BME280;36272;59.400;17.982;2023-01-09T01:22:43;99810.16;;;5.72;100.00
50364;BME280;36272;59.400;17.982;2023-01-09T01:27:45;99802.00;;;5.73;100.00
50364;BME280;36272;59.400;17.982;2023-01-09T01:32:47;99807.69;;;5.77;100.00
50364;BME280;36272;59.400;17.982;2023-01-09T01:37:48;99805.63;;;5.79;100.00
50364;BME280;36272;59.400;17.982;2023-01-09T01:42:52;99790.91;;;5.76;100.00
50364;BME280;36272;59.400;17.982;2023-01-09T01:48:14;99791.31;;;5.80;100.00
50364;BME280;36272;59.400;17.982;2023-01-09T01:53:25;99792.94;;;5.81;100.00
50364;BME280;36272;59.400;17.982;2023-01-09T01:58:28;99784.16;;;5.80;100.00
50364;BME280;36272;59.400;17.982;2023-01-09T02:03:31;99789.28;;;5.82;100.00
50364;BME280;36272;59.400;17.982;2023-01-09T02:08:34;99791.50;;;5.85;100.00
50364;BME280;36272;59.400;17.982;2023-01-09T02:13:36;99778.22;;;5.85;100.00
50364;BME280;36272;59.400;17.982;2023-01-09T02:35:04;99779.81;;;5.93;100.00
50364;BME280;36272;59.400;17.982;2023-01-09T02:45:33;99766.25;;;6.08;100.00
50364;BME280;36272;59.400;17.982;2023-01-09T02:50:35;99778.94;;;6.06;100.00
50364;BME280;36272;59.400;17.982;2023-01-09T03:01:53;99771.56;;;6.08;100.00
50364;BME280;36272;59.400;17.982;2023-01-09T03:11:49;99767.09;;;6.08;100.00
50364;BME280;36272;59.400;17.982;2023-01-09T03:16:56;99767.47;;;6.12;100.00
50364;BME280;36272;59.400;17.982;2023-01-09T03:21:58;99766.75;;;6.23;100.00
50364;BME280;36272;59.400;17.982;2023-01-09T03:27:00;99782.53;;;6.18;100.00
50364;BME280;36272;59.400;17.982;2023-01-09T03:32:02;99778.03;;;6.19;100.00
50364;BME280;36272;59.400;17.982;2023-01-09T03:37:04;99774.34;;;6.20;100.00
50364;BME280;36272;59.400;17.982;2023-01-09T03:42:06;99785.34;;;6.23;100.00
50364;BME280;36272;59.400;17.982;2023-01-09T03:47:07;99786.97;;;6.24;100.00
50364;BME280;36272;59.400;17.982;2023-01-09T03:52:09;99789.63;;;6.24;100.00
50364;BME280;36272;59.400;17.982;2023-01-09T03:57:11;99791.63;;;6.29;100.00
50364;BME280;36272;59.400;17.982;2023-01-09T04:02:12;99790.59;;;6.30;100.00
50364;BME280;36272;59.400;17.982;2023-01-09T04:07:14;99789.81;;;6.30;100.00
50364;BME280;36272;59.400;17.982;2023-01-09T04:12:15;99793.06;;;6.32;100.00
50364;BME280;36272;59.400;17.982;2023-01-09T04:17:17;99791.00;;;6.34;100.00
50364;BME280;36272;59.400;17.982;2023-01-09T04:22:19;99798.97;;;6.34;100.00
50364;BME280;36272;59.400;17.982;2023-01-09T04:27:20;99798.75;;;6.35;100.00
50364;BME280;36272;59.400;17.982;2023-01-09T04:32:22;99802.00;;;6.37;100.00
50364;BME280;36272;59.400;17.982;2023-01-09T04:37:24;99802.75;;;6.45;99.88
50364;BME280;36272;59.400;17.982;2023-01-09T04:42:25;99800.69;;;6.47;100.00
50364;BME280;36272;59.400;17.982;2023-01-09T04:47:27;99797.03;;;6.48;99.82
50364;BME280;36272;59.400;17.982;2023-01-09T04:52:31;99801.66;;;6.52;99.85
50364;BME280;36272;59.400;17.982;2023-01-09T04:57:33;99799.00;;;6.52;99.82
50364;BME280;36272;59.400;17.982;2023-01-09T05:02:35;99799.25;;;6.51;99.68
50364;BME280;36272;59.400;17.982;2023-01-09T05:07:37;99797.81;;;6.48;100.00
50364;BME280;36272;59.400;17.982;2023-01-09T05:12:39;99804.16;;;6.47;100.00
50364;BME280;36272;59.400;17.982;2023-01-09T05:17:41;99801.06;;;6.50;99.99
50364;BME280;36272;59.400;17.982;2023-01-09T05:22:42;99810.66;;;6.51;99.93
50364;BME280;36272;59.400;17.982;2023-01-09T05:27:44;99812.28;;;6.52;99.95
50364;BME280;36272;59.400;17.982;2023-01-09T05:32:46;99806.81;;;6.47;100.00
50364;BME280;36272;59.400;17.982;2023-01-09T05:37:48;99815.63;;;6.48;100.00
50364;BME280;36272;59.400;17.982;2023-01-09T05:42:49;99814.34;;;6.50;100.00
50364;BME280;36272;59.400;17.982;2023-01-09T05:47:51;99823.16;;;6.51;99.98
50364;BME280;36272;59.400;17.982;2023-01-09T05:52:53;99818.63;;;6.51;99.89
50364;BME280;36272;59.400;17.982;2023-01-09T05:57:55;99824.56;;;6.53;99.82
50364;BME280;36272;59.400;17.982;2023-01-09T06:02:56;99832.09;;;6.57;99.75
50364;BME280;36272;59.400;17.982;2023-01-09T06:07:59;99836.16;;;6.59;99.60
50364;BME280;36272;59.400;17.982;2023-01-09T06:13:00;99817.78;;;6.58;99.48
50364;BME280;36272;59.400;17.982;2023-01-09T06:18:02;99819.03;;;6.55;99.58
50364;BME280;36272;59.400;17.982;2023-01-09T06:23:10;99817.59;;;6.52;100.00
50364;BME280;36272;59.400;17.982;2023-01-09T06:28:12;99826.41;;;6.53;99.79
50364;BME280;36272;59.400;17.982;2023-01-09T06:33:13;99821.28;;;6.51;99.47
50364;BME280;36272;59.400;17.982;2023-01-09T06:38:15;99830.28;;;6.50;99.88
50364;BME280;36272;59.400;17.982;2023-01-09T06:43:17;99831.13;;;6.51;99.85
50364;BME280;36272;59.400;17.982;2023-01-09T06:48:18;99832.16;;;6.50;99.88
50364;BME280;36272;59.400;17.982;2023-01-09T06:53:20;99840.75;;;6.45;100.00
50364;BME280;36272;59.400;17.982;2023-01-09T06:58:21;99842.19;;;6.48;100.00
50364;BME280;36272;59.400;17.982;2023-01-09T07:03:23;99843.56;;;6.50;100.00
50364;BME280;36272;59.400;17.982;2023-01-09T07:08:25;99848.69;;;6.52;99.97
50364;BME280;36272;59.400;17.982;2023-01-09T07:13:26;99864.41;;;6.53;99.83
50364;BME280;36272;59.400;17.982;2023-01-09T07:18:28;99867.28;;;6.52;100.00
50364;BME280;36272;59.400;17.982;2023-01-09T07:23:30;99869.72;;;6.53;99.76
50364;BME280;36272;59.400;17.982;2023-01-09T07:28:31;99871.94;;;6.57;99.49
50364;BME280;36272;59.400;17.982;2023-01-09T07:33:33;99871.94;;;6.57;99.39
50364;BME280;36272;59.400;17.982;2023-01-09T07:38:35;99889.75;;;6.56;99.51
50364;BME280;36272;59.400;17.982;2023-01-09T07:43:37;99887.69;;;6.58;99.41
50364;BME280;36272;59.400;17.982;2023-01-09T07:48:39;99898.09;;;6.60;99.54
50364;BME280;36272;59.400;17.982;2023-01-09T07:53:41;99900.75;;;6.60;99.87
50364;BME280;36272;59.400;17.982;2023-01-09T07:58:42;99906.22;;;6.65;99.42
50364;BME280;36272;59.400;17.982;2023-01-09T08:03:44;99907.88;;;6.66;99.43
50364;BME280;36272;59.400;17.982;2023-01-09T08:08:45;99907.63;;;6.67;99.63
50364;BME280;36272;59.400;17.982;2023-01-09T08:13:47;99905.81;;;6.68;99.35
50364;BME280;36272;59.400;17.982;2023-01-09T08:18:49;99900.50;;;6.68;99.30
50364;BME280;36272;59.400;17.982;2023-01-09T08:23:51;99895.19;;;6.68;99.25
50364;BME280;36272;59.400;17.982;2023-01-09T08:28:52;99912.16;;;6.67;99.52
50364;BME280;36272;59.400;17.982;2023-01-09T08:33:54;99898.25;;;6.65;99.57
50364;BME280;36272;59.400;17.982;2023-01-09T08:38:56;99902.53;;;6.66;99.57
50364;BME280;36272;59.400;17.982;2023-01-09T08:43:57;99912.16;;;6.67;99.66
50364;BME280;36272;59.400;17.982;2023-01-09T08:49:18;99932.97;;;6.70;99.51
50364;BME280;36272;59.400;17.982;2023-01-09T08:54:23;99929.72;;;6.68;99.35
50364;BME280;36272;59.400;17.982;2023-01-09T08:59:24;99936.25;;;6.65;99.48
50364;BME280;36272;59.400;17.982;2023-01-09T09:04:26;99925.44;;;6.67;99.75
50364;BME280;36272;59.400;17.982;2023-01-09T09:09:28;99930.53;;;6.68;99.64
50364;BME280;36272;59.400;17.982;2023-01-09T09:14:29;99936.44;;;6.70;99.44
50364;BME280;36272;59.400;17.982;2023-01-09T09:19:49;99936.00;;;6.74;99.35
50364;BME280;36272;59.400;17.982;2023-01-09T09:24:51;99916.38;;;6.75;99.73
50364;BME280;36272;59.400;17.982;2023-01-09T09:29:53;99910.44;;;6.79;99.70
50364;BME280;36272;59.400;17.982;2023-01-09T09:34:54;99926.50;;;6.84;99.61
50364;BME280;36272;59.400;17.982;2023-01-09T09:39:56;99927.34;;;6.85;99.51
50364;BME280;36272;59.400;17.982;2023-01-09T09:51:26;99910.00;;;6.82;100.00
50364;BME280;36272;59.400;17.982;2023-01-09T09:56:18;99918.09;;;6.88;100.00
50364;BME280;36272;59.400;17.982;2023-01-09T10:01:34;99909.75;;;6.84;100.00
50364;BME280;36272;59.400;17.982;2023-01-09T10:06:41;99908.75;;;6.85;100.00
50364;BME280;36272;59.400;17.982;2023-01-09T10:11:54;99903.00;;;6.88;100.00
50364;BME280;36272;59.400;17.982;2023-01-09T10:22:26;99915.09;;;6.84;100.00
50364;BME280;36272;59.400;17.982;2023-01-09T10:32:57;99910.38;;;6.86;100.00
50364;BME280;36272;59.400;17.982;2023-01-09T10:38:03;99904.38;;;6.91;99.81
50364;BME280;36272;59.400;17.982;2023-01-09T10:53:35;99910.31;;;6.93;99.91
50364;BME280;36272;59.400;17.982;2023-01-09T10:58:41;99916.88;;;6.90;99.80
50364;BME280;36272;59.400;17.982;2023-01-09T11:03:42;99911.56;;;6.90;99.84
50364;BME280;36272;59.400;17.982;2023-01-09T11:08:45;99894.63;;;6.84;100.00
50364;BME280;36272;59.400;17.982;2023-01-09T11:14:03;99899.31;;;6.89;100.00
50364;BME280;36272;59.400;17.982;2023-01-09T11:19:12;99899.66;;;6.93;100.00
50364;BME280;36272;59.400;17.982;2023-01-09T11:29:21;99900.81;;;7.04;100.00
50364;BME280;36272;59.400;17.982;2023-01-09T11:34:29;99907.59;;;6.99;100.00
50364;BME280;36272;59.400;17.982;2023-01-09T11:39:31;99916.31;;;7.07;100.00
50364;BME280;36272;59.400;17.982;2023-01-09T11:44:34;99917.69;;;6.91;99.41
50364;BME280;36272;59.400;17.982;2023-01-09T11:49:36;99927.56;;;6.83;100.00
50364;BME280;36272;59.400;17.982;2023-01-09T11:54:46;99913.69;;;6.81;99.96
50364;BME280;36272;59.400;17.982;2023-01-09T11:59:49;99910.84;;;6.76;100.00
50364;BME280;36272;59.400;17.982;2023-01-09T12:04:58;99909.22;;;6.75;100.00
50364;BME280;36272;59.400;17.982;2023-01-09T12:15:38;99907.38;;;6.76;100.00
50364;BME280;36272;59.400;17.982;2023-01-09T12:47:47;99891.53;;;6.88;100.00
50364;BME280;36272;59.400;17.982;2023-01-09T12:53:07;99882.75;;;6.87;100.00
50364;BME280;36272;59.400;17.982;2023-01-09T13:03:42;99897.16;;;6.98;100.00
50364;BME280;36272;59.400;17.982;2023-01-09T13:08:51;99907.03;;;6.91;100.00
50364;BME280;36272;59.400;17.982;2023-01-09T13:14:10;99908.31;;;6.88;100.00
50364;BME280;36272;59.400;17.982;2023-01-09T13:19:24;99919.91;;;6.94;100.00
50364;BME280;36272;59.400;17.982;2023-01-09T13:24:41;99911.94;;;6.94;100.00
50364;BME280;36272;59.400;17.982;2023-01-09T13:29:52;99923.56;;;6.99;100.00
50364;BME280;36272;59.400;17.982;2023-01-09T13:34:56;99935.00;;;7.00;100.00
50364;BME280;36272;59.400;17.982;2023-01-09T13:40:05;99928.22;;;7.04;100.00
50364;BME280;36272;59.400;17.982;2023-01-09T13:50:24;99926.59;;;7.03;100.00
50364;BME280;36272;59.400;17.982;2023-01-09T13:55:28;99928.66;;;7.01;99.96
50364;BME280;36272;59.400;17.982;2023-01-09T14:15:44;99943.84;;;6.94;100.00
50364;BME280;36272;59.400;17.982;2023-01-09T14:21:09;99946.50;;;6.94;100.00
50364;BME280;36272;59.400;17.982;2023-01-09T14:26:19;99948.56;;;6.92;100.00
50364;BME280;36272;59.400;17.982;2023-01-09T14:31:30;99950.63;;;6.90;100.00
50364;BME280;36272;59.400;17.982;2023-01-09T14:36:33;99960.03;;;6.85;100.00
50364;BME280;36272;59.400;17.982;2023-01-09T14:41:43;99967.88;;;6.80;100.00
50364;BME280;36272;59.400;17.982;2023-01-09T14:52:30;99973.81;;;6.76;100.00
50364;BME280;36272;59.400;17.982;2023-01-09T14:57:33;99990.19;;;6.73;100.00
50364;BME280;36272;59.400;17.982;2023-01-09T15:02:36;99986.94;;;6.70;100.00
50364;BME280;36272;59.400;17.982;2023-01-09T15:07:42;99986.56;;;6.67;100.00
50364;BME280;36272;59.400;17.982;2023-01-09T15:12:47;99994.34;;;6.62;100.00
50364;BME280;36272;59.400;17.982;2023-01-09T15:18:06;99989.47;;;6.59;100.00
50364;BME280;36272;59.400;17.982;2023-01-09T15:23:20;99990.91;;;6.54;100.00
50364;BME280;36272;59.400;17.982;2023-01-09T15:28:24;100013.59;;;6.57;100.00
50364;BME280;36272;59.400;17.982;2023-01-09T15:33:26;100006.44;;;6.58;100.00
50364;BME280;36272;59.400;17.982;2023-01-09T15:38:30;100006.44;;;6.58;100.00
50364;BME280;36272;59.400;17.982;2023-01-09T15:43:33;100017.28;;;6.56;100.00
50364;BME280;36272;59.400;17.982;2023-01-09T15:48:37;100025.88;;;6.51;100.00
50364;BME280;36272;59.400;17.982;2023-01-09T15:53:44;100006.91;;;6.48;100.00
50364;BME280;36272;59.400;17.982;2023-01-09T15:58:54;100017.72;;;6.46;100.00
50364;BME280;36272;59.400;17.982;2023-01-09T16:09:27;100015.53;;;6.36;100.00
50364;BME280;36272;59.400;17.982;2023-01-09T16:14:33;100032.50;;;6.35;100.00
50364;BME280;36272;59.400;17.982;2023-01-09T16:19:58;100028.81;;;6.36;100.00
50364;BME280;36272;59.400;17.982;2023-01-09T16:25:32;100024.16;;;6.32;100.00
50364;BME280;36272;59.400;17.982;2023-01-09T16:31:35;100034.16;;;6.30;100.00
50364;BME280;36272;59.400;17.982;2023-01-09T16:36:10;100046.41;;;6.24;100.00
50364;BME280;36272;59.400;17.982;2023-01-09T16:41:18;100038.88;;;6.21;100.00
50364;BME280;36272;59.400;17.982;2023-01-09T16:46:42;100040.72;;;6.20;100.00
50364;BME280;36272;59.400;17.982;2023-01-09T16:51:45;100043.81;;;6.17;100.00
50364;BME280;36272;59.400;17.982;2023-01-09T16:56:50;100045.66;;;6.10;100.00
50364;BME280;36272;59.400;17.982;2023-01-09T17:01:58;100030.56;;;6.10;100.00
50364;BME280;36272;59.400;17.982;2023-01-09T17:07:00;100036.47;;;6.06;100.00
50364;BME280;36272;59.400;17.982;2023-01-09T17:12:02;100055.47;;;6.09;100.00
50364;BME280;36272;59.400;17.982;2023-01-09T17:17:08;100037.09;;;6.08;100.00
50364;BME280;36272;59.400;17.982;2023-01-09T17:22:12;100044.25;;;6.07;100.00
50364;BME280;36272;59.400;17.982;2023-01-09T17:32:47;100049.34;;;6.09;100.00
50364;BME280;36272;59.400;17.982;2023-01-09T17:37:49;100059.75;;;6.04;100.00
50364;BME280;36272;59.400;17.982;2023-01-09T17:42:51;100049.75;;;5.99;100.00
50364;BME280;36272;59.400;17.982;2023-01-09T17:47:52;100052.59;;;5.98;100.00
50364;BME280;36272;59.400;17.982;2023-01-09T17:52:54;100042.81;;;5.91;100.00
50364;BME280;36272;59.400;17.982;2023-01-09T17:57:56;100046.31;;;5.85;100.00
50364;BME280;36272;59.400;17.982;2023-01-09T18:02:58;100044.06;;;5.75;100.00
50364;BME280;36272;59.400;17.982;2023-01-09T18:08:00;100053.88;;;5.75;100.00
50364;BME280;36272;59.400;17.982;2023-01-09T18:13:02;100048.56;;;5.75;100.00
50364;BME280;36272;59.400;17.982;2023-01-09T18:18:03;100050.59;;;5.73;100.00
50364;BME280;36272;59.400;17.982;2023-01-09T18:23:06;100046.13;;;5.73;100.00
50364;BME280;36272;59.400;17.982;2023-01-09T18:28:09;100035.91;;;5.77;100.00
50364;BME280;36272;59.400;17.982;2023-01-09T18:33:12;100029.38;;;5.73;100.00
50364;BME280;36272;59.400;17.982;2023-01-09T18:38:13;100038.56;;;5.77;100.00
50364;BME280;36272;59.400;17.982;2023-01-09T18:43:16;100041.22;;;5.70;100.00
50364;BME280;36272;59.400;17.982;2023-01-09T18:48:20;100045.31;;;5.66;100.00
50364;BME280;36272;59.400;17.982;2023-01-09T18:53:22;100045.72;;;5.63;100.00
50364;BME280;36272;59.400;17.982;2023-01-09T18:58:24;100053.25;;;5.59;100.00
50364;BME280;36272;59.400;17.982;2023-01-09T19:03:26;100037.75;;;5.56;100.00
50364;BME280;36272;59.400;17.982;2023-01-09T19:08:32;100036.34;;;5.54;100.00
50364;BME280;36272;59.400;17.982;2023-01-09T19:13:35;100034.69;;;5.53;100.00
50364;BME280;36272;59.400;17.982;2023-01-09T19:18:38;100043.28;;;5.48;100.00
50364;BME280;36272;59.400;17.982;2023-01-09T19:23:42;100058.78;;;5.44;99.82
50364;BME280;36272;59.400;17.982;2023-01-09T19:28:44;100076.94;;;5.41;100.00
50364;BME280;36272;59.400;17.982;2023-01-09T19:33:47;100062.84;;;5.40;100.00
50364;BME280;36272;59.400;17.982;2023-01-09T19:38:53;100073.88;;;5.37;99.68
50364;BME280;36272;59.400;17.982;2023-01-09T19:43:55;100066.72;;;5.31;100.00
50364;BME280;36272;59.400;17.982;2023-01-09T19:48:57;100083.69;;;5.30;100.00
50364;BME280;36272;59.400;17.982;2023-01-09T19:53:59;100082.44;;;5.26;100.00
50364;BME280;36272;59.400;17.982;2023-01-09T19:59:03;100070.59;;;5.28;99.86
50364;BME280;36272;59.400;17.982;2023-01-09T20:04:06;100075.50;;;5.25;99.79
50364;BME280;36272;59.400;17.982;2023-01-09T20:09:11;100068.78;;;5.29;100.00
50364;BME280;36272;59.400;17.982;2023-01-09T20:14:14;100074.69;;;5.17;100.00
50364;BME280;36272;59.400;17.982;2023-01-09T20:19:16;100088.13;;;5.09;99.72
50364;BME280;36272;59.400;17.982;2023-01-09T20:24:18;100084.47;;;5.03;99.97
50364;BME280;36272;59.400;17.982;2023-01-09T20:29:20;100081.59;;;4.98;100.00
50364;BME280;36272;59.400;17.982;2023-01-09T20:34:22;100079.94;;;4.97;99.89
50364;BME280;36272;59.400;17.982;2023-01-09T20:39:23;100086.44;;;4.95;99.85
50364;BME280;36272;59.400;17.982;2023-01-09T20:44:25;100079.28;;;4.88;99.71
50364;BME280;36272;59.400;17.982;2023-01-09T20:49:29;100067.50;;;4.84;99.77
50364;BME280;36272;59.400;17.982;2023-01-09T20:54:31;100085.59;;;4.81;99.27
50364;BME280;36272;59.400;17.982;2023-01-09T20:59:33;100086.59;;;4.73;99.35
50364;BME280;36272;59.400;17.982;2023-01-09T21:04:34;100084.34;;;4.70;99.45
50364;BME280;36272;59.400;17.982;2023-01-09T21:09:36;100098.78;;;4.60;99.41
50364;BME280;36272;59.400;17.982;2023-01-09T21:14:38;100110.22;;;4.61;99.20
50364;BME280;36272;59.400;17.982;2023-01-09T21:19:39;100100.19;;;4.56;99.18
50364;BME280;36272;59.400;17.982;2023-01-09T21:24:41;100099.38;;;4.56;99.29
50364;BME280;36272;59.400;17.982;2023-01-09T21:29:43;100103.06;;;4.55;99.10
50364;BME280;36272;59.400;17.982;2023-01-09T21:34:45;100112.41;;;4.51;99.05
50364;BME280;36272;59.400;17.982;2023-01-09T21:39:47;100106.88;;;4.45;99.05
50364;BME280;36272;59.400;17.982;2023-01-09T21:44:48;100106.84;;;4.39;98.74
50364;BME280;36272;59.400;17.982;2023-01-09T21:50:09;100091.13;;;4.37;99.00
50364;BME280;36272;59.400;17.982;2023-01-09T21:55:11;100089.50;;;4.36;99.18
50364;BME280;36272;59.400;17.982;2023-01-09T22:00:13;100094.81;;;4.36;99.07
50364;BME280;36272;59.400;17.982;2023-01-09T22:05:15;100095.56;;;4.30;99.24
50364;BME280;36272;59.400;17.982;2023-01-09T22:10:17;100109.84;;;4.29;98.67
50364;BME280;36272;59.400;17.982;2023-01-09T22:15:19;100107.78;;;4.24;98.51
50364;BME280;36272;59.400;17.982;2023-01-09T22:20:21;100103.25;;;4.18;98.98
50364;BME280;36272;59.400;17.982;2023-01-09T22:25:23;100101.59;;;4.10;99.74
50364;BME280;36272;59.400;17.982;2023-01-09T22:30:24;100106.50;;;4.13;99.72
50364;BME280;36272;59.400;17.982;2023-01-09T22:35:26;100110.97;;;4.13;99.25
50364;BME280;36272;59.400;17.982;2023-01-09T22:40:28;100109.28;;;4.05;98.83
50364;BME280;36272;59.400;17.982;2023-01-09T22:45:29;100107.66;;;4.04;98.90
50364;BME280;36272;59.400;17.982;2023-01-09T22:50:31;100108.84;;;4.01;99.22
50364;BME280;36272;59.400;17.982;2023-01-09T22:55:34;100114.34;;;4.00;98.66
50364;BME280;36272;59.400;17.982;2023-01-09T23:00:35;100112.09;;;3.97;99.05
50364;BME280;36272;59.400;17.982;2023-01-09T23:05:37;100111.22;;;3.90;98.93
50364;BME280;36272;59.400;17.982;2023-01-09T23:10:39;100113.22;;;3.87;98.96
50364;BME280;36272;59.400;17.982;2023-01-09T23:15:41;100103.41;;;3.81;99.60
50364;BME280;36272;59.400;17.982;2023-01-09T23:21:03;100087.13;;;3.78;100.00
50364;BME280;36272;59.400;17.982;2023-01-09T23:26:05;100092.22;;;3.79;99.65
50364;BME280;36272;59.400;17.982;2023-01-09T23:31:07;100096.88;;;3.77;99.47
50364;BME280;36272;59.400;17.982;2023-01-09T23:36:08;100102.16;;;3.77;99.86
50364;BME280;36272;59.400;17.982;2023-01-09T23:41:10;100099.13;;;3.80;99.84
50364;BME280;36272;59.400;17.982;2023-01-09T23:46:11;100094.44;;;3.76;99.52
50364;BME280;36272;59.400;17.982;2023-01-09T23:51:13;100094.81;;;3.72;99.94
50364;BME280;36272;59.400;17.982;2023-01-09T23:56:15;100089.09;;;3.69;99.41
